Time;durP1;ratioP1;P1;durP2;ratioP2;P2;SDS_P1;SDS_P2;PMS_P1;PMS_P2;Temp;Humidity;BMP_temperature;BMP_pressure;BME280_temperature;BME280_humidity;BME280_pressure;Samples;Min_cycle;Max_cycle;Signal;HPM_P1;HPM_P2
2024/02/19 00:03:56;;;;;;;42.88;29.65;;;;;;;;;;10339602;28;20482;-96
2024/02/19 00:08:58;;;;;;;44.43;30.17;;;;;;;;;;10364633;28;20415;-95
2024/02/19 00:14:02;;;;;;;47.38;31.60;;;;;;;;;;10376135;28;20436;-95
2024/02/19 00:19:05;;;;;;;54.50;33.97;;;;;;;;;;10363931;28;20411;-95
2024/02/19 00:24:08;;;;;;;49.78;32.58;;;;;;;;;;10367887;28;20426;-95
2024/02/19 00:29:12;;;;;;;44.43;30.33;;;;;;;;;;10356013;28;20448;-95
2024/02/19 00:34:15;;;;;;;45.70;31.50;;;;;;;;;;10352937;28;20479;-96
2024/02/19 00:39:17;;;;;;;46.67;31.07;;;;;;;;;;10359677;28;20451;-96
2024/02/19 00:44:23;;;;;;;47.08;30.08;;;;;;;;;;10339232;28;20401;-96
2024/02/19 00:49:25;;;;;;;47.53;30.45;;;;;;;;;;10360715;28;20450;-96
2024/02/19 00:54:28;;;;;;;46.50;30.00;;;;;;;;;;10364375;28;20895;-96
2024/02/19 00:59:32;;;;;;;43.05;28.75;;;;;;;;;;10352221;28;20428;-95
2024/02/19 01:04:35;;;;;;;45.90;29.52;;;;;;;;;;10349154;28;20467;-95
2024/02/19 01:09:38;;;;;;;44.67;29.75;;;;;;;;;;10355836;28;20407;-95
2024/02/19 01:14:43;;;;;;;44.53;30.00;;;;;;;;;;10364099;28;20409;-95
2024/02/19 01:19:46;;;;;;;41.77;29.30;;;;;;;;;;10353044;28;20483;-96
2024/02/19 01:24:49;;;;;;;42.00;28.55;;;;;;;;;;10368577;28;20402;-95
2024/02/19 01:29:57;;;;;;;42.20;28.87;;;;;;;;;;10357654;28;20413;-96
2024/02/19 01:35:00;;;;;;;39.83;27.02;;;;;;;;;;10365659;28;20418;-95
2024/02/19 01:40:07;;;;;;;40.75;26.88;;;;;;;;;;10368034;28;20814;-96
2024/02/19 01:45:26;;;;;;;38.50;25.70;;;;;;;;;;10380517;28;20412;-95
2024/02/19 01:50:31;;;;;;;41.93;26.20;;;;;;;;;;10361330;28;20432;-95
2024/02/19 01:55:35;;;;;;;39.70;26.48;;;;;;;;;;10382563;28;20438;-96
2024/02/19 02:00:40;;;;;;;39.10;25.90;;;;;;;;;;10376638;28;20417;-94
2024/02/19 02:05:43;;;;;;;37.10;25.35;;;;;;;;;;10343589;28;20415;-96
2024/02/19 02:10:46;;;;;;;35.05;23.33;;;;;;;;;;10346622;28;20443;-95
2024/02/19 02:15:50;;;;;;;32.67;21.88;;;;;;;;;;10363623;28;20405;-96
2024/02/19 02:20:53;;;;;;;30.58;21.17;;;;;;;;;;10363481;28;20424;-94
2024/02/19 02:25:56;;;;;;;32.13;21.35;;;;;;;;;;10352666;28;20420;-96
2024/02/19 02:31:00;;;;;;;34.27;21.43;;;;;;;;;;10359342;28;20459;-94
2024/02/19 02:36:05;;;;;;;30.83;20.25;;;;;;;;;;10349074;28;20905;-93
2024/02/19 02:41:08;;;;;;;29.42;19.80;;;;;;;;;;10366448;28;20416;-94
2024/02/19 02:46:12;;;;;;;31.25;20.52;;;;;;;;;;10390909;28;20415;-96
2024/02/19 03:01:50;;;;;;;26.60;18.45;;;;;;;;;;10323429;28;20448;-95
2024/02/19 03:06:52;;;;;;;29.33;19.45;;;;;;;;;;10317724;28;20446;-96
2024/02/19 03:11:55;;;;;;;28.35;19.88;;;;;;;;;;10312470;28;20940;-96
2024/02/19 03:16:59;;;;;;;30.92;21.70;;;;;;;;;;10312547;28;20457;-96
2024/02/19 03:22:04;;;;;;;33.77;22.20;;;;;;;;;;10313955;28;20423;-96
2024/02/19 03:27:07;;;;;;;31.70;21.80;;;;;;;;;;10314236;28;20845;-96
2024/02/19 03:32:11;;;;;;;31.63;21.80;;;;;;;;;;10299766;28;20412;-96
2024/02/19 03:37:15;;;;;;;29.75;21.77;;;;;;;;;;10311093;28;20450;-96
2024/02/19 03:42:17;;;;;;;32.67;21.90;;;;;;;;;;10319736;28;20438;-96
2024/02/19 03:47:22;;;;;;;32.65;22.17;;;;;;;;;;10330057;28;20418;-95
2024/02/19 03:52:24;;;;;;;33.33;21.77;;;;;;;;;;10317169;28;20418;-94
2024/02/19 03:57:27;;;;;;;33.40;21.57;;;;;;;;;;10316611;28;20418;-95
2024/02/19 04:02:31;;;;;;;34.70;23.92;;;;;;;;;;10299609;28;20491;-95
2024/02/19 04:07:34;;;;;;;34.95;23.48;;;;;;;;;;10308300;28;20419;-96
2024/02/19 04:12:39;;;;;;;37.92;23.60;;;;;;;;;;10309235;28;20419;-96
2024/02/19 04:17:42;;;;;;;36.50;24.13;;;;;;;;;;10339324;28;20401;-95
2024/02/19 04:46:23;;;;;;;36.97;24.83;;;;;;;;;;10410546;28;20591;-96
2024/02/19 04:51:25;;;;;;;34.55;23.73;;;;;;;;;;10408032;28;20406;-96
2024/02/19 04:56:28;;;;;;;33.20;23.57;;;;;;;;;;10410231;28;20406;-96
2024/02/19 05:01:33;;;;;;;34.23;24.17;;;;;;;;;;10407941;28;20452;-96
2024/02/19 05:06:35;;;;;;;36.60;24.27;;;;;;;;;;10406454;28;20445;-96
2024/02/19 05:11:38;;;;;;;37.50;24.80;;;;;;;;;;10407148;28;20411;-95
2024/02/19 05:16:42;;;;;;;34.92;23.23;;;;;;;;;;10402895;28;20438;-96
2024/02/19 05:21:45;;;;;;;39.75;24.63;;;;;;;;;;10408209;28;20485;-95
2024/02/19 05:26:47;;;;;;;37.38;24.05;;;;;;;;;;10403970;28;20561;-95
2024/02/19 05:31:51;;;;;;;33.27;22.33;;;;;;;;;;10428359;28;20459;-96
2024/02/19 05:36:55;;;;;;;31.95;22.17;;;;;;;;;;10432911;28;20754;-95
2024/02/19 05:41:57;;;;;;;34.78;23.23;;;;;;;;;;10403309;28;20403;-95
2024/02/19 05:47:02;;;;;;;33.67;23.13;;;;;;;;;;10398695;28;20401;-96
2024/02/19 05:52:05;;;;;;;34.03;21.95;;;;;;;;;;10391849;28;20444;-95
2024/02/19 05:57:09;;;;;;;30.48;21.80;;;;;;;;;;10399232;28;20392;-96
2024/02/19 06:02:13;;;;;;;32.92;21.48;;;;;;;;;;10392164;28;20427;-93
2024/02/19 06:07:16;;;;;;;30.45;20.58;;;;;;;;;;10365742;28;21078;-94
2024/02/19 06:12:18;;;;;;;31.47;21.87;;;;;;;;;;10378814;28;20447;-96
2024/02/19 06:17:22;;;;;;;28.05;20.02;;;;;;;;;;10389321;28;20472;-96
2024/02/19 06:22:25;;;;;;;33.30;22.07;;;;;;;;;;10394369;28;20415;-96
2024/02/19 06:27:28;;;;;;;32.15;20.95;;;;;;;;;;10384817;28;20420;-96
2024/02/19 06:32:32;;;;;;;36.43;20.80;;;;;;;;;;10389428;28;20409;-96
2024/02/19 06:37:35;;;;;;;29.07;19.97;;;;;;;;;;10397851;28;20461;-96
2024/02/19 06:42:37;;;;;;;31.77;21.23;;;;;;;;;;10405621;28;20415;-96
2024/02/19 06:47:42;;;;;;;32.95;21.15;;;;;;;;;;10396150;28;20395;-94
2024/02/19 06:52:46;;;;;;;33.87;21.03;;;;;;;;;;10400541;28;20438;-94
2024/02/19 06:57:48;;;;;;;36.30;21.23;;;;;;;;;;10390979;28;20465;-94
2024/02/19 07:02:52;;;;;;;33.60;21.48;;;;;;;;;;10360391;28;20454;-94
2024/02/19 07:07:54;;;;;;;36.83;22.58;;;;;;;;;;10362453;28;20417;-94
2024/02/19 07:12:57;;;;;;;35.42;23.63;;;;;;;;;;10372445;28;20435;-94
2024/02/19 07:18:01;;;;;;;37.45;22.65;;;;;;;;;;10378393;28;20462;-95
2024/02/19 07:23:04;;;;;;;34.10;21.70;;;;;;;;;;10362416;28;20651;-94
2024/02/19 07:28:06;;;;;;;36.17;23.17;;;;;;;;;;10365182;28;20423;-94
2024/02/19 07:33:10;;;;;;;37.70;23.20;;;;;;;;;;10372186;28;20411;-94
2024/02/19 07:38:13;;;;;;;34.23;21.00;;;;;;;;;;10387456;28;20438;-93
2024/02/19 07:43:16;;;;;;;31.45;20.25;;;;;;;;;;10383678;28;20434;-94
2024/02/19 07:48:20;;;;;;;33.50;20.08;;;;;;;;;;10404745;23;20936;-94
2024/02/19 07:53:22;;;;;;;30.10;19.75;;;;;;;;;;10356716;28;20428;-93
2024/02/19 07:58:25;;;;;;;29.88;19.73;;;;;;;;;;10371206;28;20414;-96
2024/02/19 08:03:28;;;;;;;35.05;21.17;;;;;;;;;;10363719;28;20430;-95
2024/02/19 08:08:31;;;;;;;30.43;20.17;;;;;;;;;;10341031;28;20500;-96
2024/02/19 08:13:33;;;;;;;33.77;20.73;;;;;;;;;;10369080;28;20518;-95
2024/02/19 08:18:38;;;;;;;33.30;21.00;;;;;;;;;;10387723;28;20423;-93
2024/02/19 08:23:43;;;;;;;36.45;21.10;;;;;;;;;;10369828;28;22403;-94
2024/02/19 08:28:47;;;;;;;33.92;21.45;;;;;;;;;;10381036;28;20397;-94
2024/02/19 08:33:51;;;;;;;29.60;18.83;;;;;;;;;;10404740;28;20426;-94
2024/02/19 08:38:54;;;;;;;31.27;19.55;;;;;;;;;;10381353;28;20481;-95
2024/02/19 08:43:56;;;;;;;28.00;18.73;;;;;;;;;;10397857;28;20403;-94
2024/02/19 08:49:00;;;;;;;27.42;18.40;;;;;;;;;;10390767;28;20414;-93
2024/02/19 08:54:02;;;;;;;28.43;18.17;;;;;;;;;;10383035;28;20411;-94
2024/02/19 08:59:05;;;;;;;31.00;19.17;;;;;;;;;;10373005;28;20483;-94
2024/02/19 09:04:09;;;;;;;25.55;18.17;;;;;;;;;;10366403;28;20425;-95
2024/02/19 09:09:11;;;;;;;26.20;17.05;;;;;;;;;;10380320;28;20417;-93
2024/02/19 09:14:14;;;;;;;22.80;15.43;;;;;;;;;;10360351;28;20472;-94
2024/02/19 09:19:18;;;;;;;22.55;14.23;;;;;;;;;;10379813;28;20466;-95
2024/02/19 09:24:20;;;;;;;17.73;12.65;;;;;;;;;;10380001;28;20417;-95
2024/02/19 09:29:24;;;;;;;19.88;13.55;;;;;;;;;;10395242;28;20426;-94
2024/02/19 09:34:28;;;;;;;18.73;12.00;;;;;;;;;;10393993;28;20429;-95
2024/02/19 09:39:31;;;;;;;15.15;10.90;;;;;;;;;;10382615;28;20443;-96
2024/02/19 09:44:34;;;;;;;16.23;11.25;;;;;;;;;;10388293;28;20487;-94
2024/02/19 09:49:39;;;;;;;15.25;10.68;;;;;;;;;;10386438;28;20472;-94
2024/02/19 09:54:42;;;;;;;16.83;11.27;;;;;;;;;;10409978;28;20453;-94
2024/02/19 09:59:45;;;;;;;25.80;15.52;;;;;;;;;;10421673;28;20391;-94
2024/02/19 10:04:49;;;;;;;22.02;14.75;;;;;;;;;;10426516;28;20418;-95
2024/02/19 10:09:53;;;;;;;20.55;13.57;;;;;;;;;;10383034;28;20445;-94
2024/02/19 10:14:57;;;;;;;24.40;14.60;;;;;;;;;;10388729;28;20413;-93
2024/02/19 10:20:06;;;;;;;22.92;15.52;;;;;;;;;;10385326;28;20453;-94
2024/02/19 10:25:11;;;;;;;17.67;11.35;;;;;;;;;;10382499;28;20578;-95
2024/02/19 10:30:16;;;;;;;17.55;12.52;;;;;;;;;;10394361;28;20477;-95
2024/02/19 10:35:20;;;;;;;18.05;12.07;;;;;;;;;;10377844;28;20453;-94
2024/02/19 10:40:22;;;;;;;13.13;9.25;;;;;;;;;;10385320;28;20484;-93
2024/02/19 10:45:26;;;;;;;20.37;13.87;;;;;;;;;;10388591;28;20423;-95
2024/02/19 10:50:33;;;;;;;18.77;12.37;;;;;;;;;;10373694;28;20938;-94
2024/02/19 10:55:36;;;;;;;18.38;12.50;;;;;;;;;;10390845;28;20423;-94
2024/02/19 11:00:40;;;;;;;14.23;11.02;;;;;;;;;;10396911;28;20419;-95
2024/02/19 11:05:46;;;;;;;17.00;12.10;;;;;;;;;;10397130;28;20434;-95
2024/02/19 11:10:50;;;;;;;19.27;12.37;;;;;;;;;;10411001;28;20901;-95
2024/02/19 11:15:53;;;;;;;19.73;12.95;;;;;;;;;;10403465;28;20449;-94
2024/02/19 11:21:05;;;;;;;18.17;13.33;;;;;;;;;;10377461;28;20429;-93
2024/02/19 11:26:08;;;;;;;19.42;12.27;;;;;;;;;;10383471;28;20431;-93
2024/02/19 11:31:14;;;;;;;18.05;12.10;;;;;;;;;;10390801;28;20415;-94
2024/02/19 11:36:19;;;;;;;17.37;12.20;;;;;;;;;;10391809;28;20397;-94
2024/02/19 11:41:21;;;;;;;18.77;12.23;;;;;;;;;;10381718;28;20449;-94
2024/02/19 11:46:24;;;;;;;19.60;13.07;;;;;;;;;;10388274;28;20429;-94
2024/02/19 11:51:29;;;;;;;18.75;12.63;;;;;;;;;;10389444;28;20415;-94
2024/02/19 11:56:43;;;;;;;16.80;12.20;;;;;;;;;;10390269;28;20427;-94
2024/02/19 12:01:46;;;;;;;19.63;11.57;;;;;;;;;;10407115;28;20438;-94
2024/02/19 12:06:50;;;;;;;18.42;12.35;;;;;;;;;;10375823;28;20415;-95
2024/02/19 12:11:53;;;;;;;17.50;11.85;;;;;;;;;;10387820;28;20419;-94
2024/02/19 12:16:56;;;;;;;20.25;12.38;;;;;;;;;;10392554;28;20427;-95
2024/02/19 12:22:00;;;;;;;17.20;11.70;;;;;;;;;;10373391;28;20469;-94
2024/02/19 12:27:03;;;;;;;18.63;12.10;;;;;;;;;;10381553;28;20431;-94
2024/02/19 12:32:07;;;;;;;16.65;11.75;;;;;;;;;;10380588;28;20407;-95
2024/02/19 12:37:12;;;;;;;14.18;10.20;;;;;;;;;;10393683;28;20477;-95
2024/02/19 12:42:16;;;;;;;15.02;10.90;;;;;;;;;;10384575;28;20432;-95
2024/02/19 12:47:19;;;;;;;16.67;11.75;;;;;;;;;;10398600;28;20423;-94
2024/02/19 12:52:27;;;;;;;19.33;13.00;;;;;;;;;;10402768;28;20409;-95
2024/02/19 12:57:30;;;;;;;17.58;12.30;;;;;;;;;;10391878;28;20413;-95
2024/02/19 13:02:33;;;;;;;18.58;12.57;;;;;;;;;;10410941;28;20415;-95
2024/02/19 13:07:39;;;;;;;18.83;13.23;;;;;;;;;;10374150;28;20403;-94
2024/02/19 13:12:42;;;;;;;22.30;13.55;;;;;;;;;;10379324;28;21635;-96
2024/02/19 13:17:45;;;;;;;17.60;12.50;;;;;;;;;;10391984;28;20504;-95
2024/02/19 13:22:50;;;;;;;23.50;12.93;;;;;;;;;;10390061;28;20419;-96
2024/02/19 13:27:53;;;;;;;18.02;11.77;;;;;;;;;;10398388;28;20419;-96
2024/02/19 13:32:58;;;;;;;23.63;14.97;;;;;;;;;;10390939;28;20414;-95
2024/02/19 13:38:04;;;;;;;18.88;11.70;;;;;;;;;;10380112;28;20768;-95
2024/02/19 13:43:08;;;;;;;23.90;14.52;;;;;;;;;;10405741;28;20505;-95
2024/02/19 16:18:02;;;;;;;14.60;10.17;;;;;;;;;;10392739;28;20494;-91
2024/02/19 16:23:05;;;;;;;18.37;12.27;;;;;;;;;;10401882;28;20477;-89
2024/02/19 16:28:08;;;;;;;18.75;10.90;;;;;;;;;;10402013;28;20429;-89
2024/02/19 16:33:12;;;;;;;15.87;10.67;;;;;;;;;;10409749;28;20422;-95
2024/02/19 16:38:15;;;;;;;17.77;11.00;;;;;;;;;;10415468;28;20404;-80
2024/02/19 16:43:17;;;;;;;22.52;11.88;;;;;;;;;;10397527;28;20479;-80
2024/02/19 16:48:21;;;;;;;16.02;10.15;;;;;;;;;;10392151;28;20411;-89
2024/02/19 16:53:25;;;;;;;16.97;10.53;;;;;;;;;;10401788;28;20405;-89
2024/02/19 16:58:28;;;;;;;20.80;10.85;;;;;;;;;;10426706;28;20431;-91
2024/02/19 17:03:32;;;;;;;17.67;10.77;;;;;;;;;;10405601;28;20417;-90
2024/02/19 17:08:34;;;;;;;17.10;10.93;;;;;;;;;;10399945;28;20417;-90
2024/02/19 17:13:37;;;;;;;20.80;12.47;;;;;;;;;;10412043;28;20434;-91
2024/02/19 17:18:40;;;;;;;18.98;12.27;;;;;;;;;;10419964;28;20464;-92
2024/02/19 17:23:45;;;;;;;17.83;12.10;;;;;;;;;;10397648;28;20460;-92
2024/02/19 17:28:47;;;;;;;20.90;12.93;;;;;;;;;;10392919;28;20422;-90
2024/02/19 17:33:51;;;;;;;21.98;12.75;;;;;;;;;;10419478;28;20412;-91
2024/02/19 17:38:54;;;;;;;24.95;14.48;;;;;;;;;;10402899;28;20671;-89
2024/02/19 17:43:56;;;;;;;25.53;14.37;;;;;;;;;;10410781;28;20470;-91
2024/02/19 17:49:00;;;;;;;20.23;13.07;;;;;;;;;;10408726;28;20425;-93
2024/02/19 17:54:02;;;;;;;20.97;13.63;;;;;;;;;;10398152;28;20517;-92
2024/02/19 17:59:06;;;;;;;23.47;14.77;;;;;;;;;;10409409;28;20531;-92
2024/02/19 18:04:10;;;;;;;21.13;14.83;;;;;;;;;;10184550;28;25624;-93
2024/02/19 18:09:13;;;;;;;27.63;16.67;;;;;;;;;;10377775;28;20418;-92
2024/02/19 18:14:15;;;;;;;32.42;19.60;;;;;;;;;;10350904;28;20448;-87
2024/02/19 18:19:19;;;;;;;29.38;18.48;;;;;;;;;;10361433;28;20417;-86
2024/02/19 18:24:21;;;;;;;29.80;19.17;;;;;;;;;;10354136;28;20525;-87
2024/02/19 18:29:24;;;;;;;28.93;18.80;;;;;;;;;;10355044;28;20422;-87
2024/02/19 18:34:30;;;;;;;31.17;20.15;;;;;;;;;;10361799;28;20421;-88
2024/02/19 18:39:32;;;;;;;28.50;18.65;;;;;;;;;;10346820;28;20439;-88
2024/02/19 18:44:35;;;;;;;27.10;18.38;;;;;;;;;;10356758;28;21034;-88
2024/02/19 18:49:38;;;;;;;29.52;19.85;;;;;;;;;;10355369;28;20509;-88
2024/02/19 18:54:41;;;;;;;34.03;20.53;;;;;;;;;;10339959;28;20908;-86
2024/02/19 18:59:44;;;;;;;34.00;22.67;;;;;;;;;;10343087;28;20451;-88
2024/02/19 19:04:48;;;;;;;40.30;25.38;;;;;;;;;;10349760;28;20459;-87
2024/02/19 19:09:51;;;;;;;41.17;24.42;;;;;;;;;;10353398;28;20468;-88
2024/02/19 19:14:54;;;;;;;44.83;25.43;;;;;;;;;;10352735;28;20411;-87
2024/02/19 19:19:57;;;;;;;38.07;23.50;;;;;;;;;;10366228;28;20405;-88
2024/02/19 19:25:00;;;;;;;36.03;24.60;;;;;;;;;;10357213;28;20503;-88
2024/02/19 19:30:02;;;;;;;38.88;25.55;;;;;;;;;;10352992;28;20519;-86
2024/02/19 19:35:07;;;;;;;38.78;25.55;;;;;;;;;;10355932;28;20437;-87
2024/02/19 19:40:10;;;;;;;41.05;26.77;;;;;;;;;;10335976;28;20753;-88
2024/02/19 19:45:14;;;;;;;52.25;30.90;;;;;;;;;;10348975;28;20429;-87
2024/02/19 19:50:19;;;;;;;42.35;27.38;;;;;;;;;;10338725;28;20444;-87
2024/02/19 19:55:21;;;;;;;42.87;27.70;;;;;;;;;;10338926;28;20506;-88
2024/02/19 20:00:24;;;;;;;44.80;29.90;;;;;;;;;;10338174;28;20453;-86
2024/02/19 20:05:28;;;;;;;47.00;28.80;;;;;;;;;;10354731;28;20483;-86
2024/02/19 20:10:31;;;;;;;46.63;28.10;;;;;;;;;;10343455;28;20421;-87
2024/02/19 20:15:33;;;;;;;48.92;30.27;;;;;;;;;;10350371;28;20425;-88
2024/02/19 20:20:38;;;;;;;48.40;30.85;;;;;;;;;;10340502;28;20416;-88
2024/02/19 20:25:40;;;;;;;48.37;30.90;;;;;;;;;;10343022;28;20466;-92
2024/02/19 20:30:43;;;;;;;51.67;30.83;;;;;;;;;;10347510;28;20485;-92
2024/02/19 20:35:47;;;;;;;51.70;33.80;;;;;;;;;;10353111;28;20415;-91
2024/02/19 20:40:49;;;;;;;57.13;35.42;;;;;;;;;;10342172;28;20482;-92
2024/02/19 20:45:52;;;;;;;51.83;31.77;;;;;;;;;;10352850;28;20483;-91
2024/02/19 20:50:55;;;;;;;49.70;31.98;;;;;;;;;;10360058;28;20415;-92
2024/02/19 20:55:58;;;;;;;66.25;36.42;;;;;;;;;;10333728;28;20519;-92
2024/02/19 21:01:00;;;;;;;75.63;41.92;;;;;;;;;;10347754;28;20419;-91
2024/02/19 21:06:04;;;;;;;65.28;38.72;;;;;;;;;;10359527;28;20912;-91
2024/02/19 21:11:08;;;;;;;62.60;35.42;;;;;;;;;;10364522;28;20426;-92
2024/02/19 21:16:11;;;;;;;61.25;36.17;;;;;;;;;;10365252;28;21135;-91
2024/02/19 21:21:15;;;;;;;61.58;36.75;;;;;;;;;;10347433;28;20483;-93
2024/02/19 21:26:19;;;;;;;62.78;37.15;;;;;;;;;;10350038;28;20418;-92
2024/02/19 21:31:22;;;;;;;60.80;38.50;;;;;;;;;;10356977;28;20403;-92
2024/02/19 21:36:26;;;;;;;64.65;39.17;;;;;;;;;;10366147;28;20408;-93
2024/02/19 21:41:29;;;;;;;60.88;36.38;;;;;;;;;;10376173;28;20455;-91
2024/02/19 21:46:33;;;;;;;59.50;37.03;;;;;;;;;;10372314;28;20420;-92
2024/02/19 21:51:40;;;;;;;57.90;35.83;;;;;;;;;;10366533;28;20397;-93
2024/02/19 21:56:43;;;;;;;61.03;38.17;;;;;;;;;;10374706;28;20446;-92
2024/02/19 22:01:45;;;;;;;64.13;38.85;;;;;;;;;;10367835;28;20789;-92
2024/02/19 22:06:49;;;;;;;61.83;36.37;;;;;;;;;;10384585;28;20497;-94
2024/02/19 22:11:52;;;;;;;59.28;37.22;;;;;;;;;;10386667;28;20426;-90
2024/02/19 22:16:54;;;;;;;63.65;37.30;;;;;;;;;;10362993;28;20456;-90
2024/02/19 22:21:58;;;;;;;57.35;35.40;;;;;;;;;;10365698;28;20912;-88
2024/02/19 22:27:01;;;;;;;57.80;35.85;;;;;;;;;;10364177;28;20443;-88
2024/02/19 22:32:04;;;;;;;56.33;34.95;;;;;;;;;;10349178;28;20977;-87
2024/02/19 22:37:08;;;;;;;52.92;32.45;;;;;;;;;;10345238;28;20416;-87
2024/02/19 22:42:10;;;;;;;49.80;31.93;;;;;;;;;;10341589;28;20483;-90
2024/02/19 22:47:13;;;;;;;52.35;32.90;;;;;;;;;;10380180;28;20428;-89
2024/02/19 22:52:17;;;;;;;57.45;33.63;;;;;;;;;;10391285;28;20403;-91
2024/02/19 22:57:20;;;;;;;52.55;32.92;;;;;;;;;;10363385;28;20412;-91
2024/02/19 23:02:23;;;;;;;55.07;33.47;;;;;;;;;;10357332;28;20442;-90
2024/02/19 23:07:27;;;;;;;51.08;32.22;;;;;;;;;;10362462;28;20436;-89
2024/02/19 23:12:29;;;;;;;55.83;33.45;;;;;;;;;;10365217;28;20427;-90
2024/02/19 23:17:32;;;;;;;59.63;34.07;;;;;;;;;;10356889;28;20439;-91
2024/02/19 23:22:36;;;;;;;54.30;33.97;;;;;;;;;;10344360;28;20471;-91
2024/02/19 23:27:38;;;;;;;56.23;34.17;;;;;;;;;;10356824;28;21935;-90
2024/02/19 23:32:40;;;;;;;55.30;34.90;;;;;;;;;;10352274;28;20430;-90
2024/02/19 23:37:45;;;;;;;58.35;35.25;;;;;;;;;;10353620;28;20465;-91
2024/02/19 23:42:48;;;;;;;55.55;33.75;;;;;;;;;;10344575;28;20895;-89
2024/02/19 23:47:51;;;;;;;52.72;33.63;;;;;;;;;;10344607;28;20424;-90
2024/02/19 23:52:55;;;;;;;58.88;35.15;;;;;;;;;;10353654;28;20424;-89
2024/02/19 23:57:58;;;;;;;55.95;33.78;;;;;;;;;;10347609;28;20959;-90
